createdAt,value
2022-08-09T00:00:13.277Z,102768.78
2022-08-09T00:06:15.490Z,102783.63
2022-08-09T00:10:40.584Z,102777.75
2022-08-09T00:15:59.133Z,102781.91
2022-08-09T00:21:08.478Z,102782.59
2022-08-09T00:26:12.342Z,102786.00
2022-08-09T00:31:55.749Z,102784.84
2022-08-09T00:36:42.096Z,102778.34
2022-08-09T00:44:15.861Z,102777.19
2022-08-09T00:47:09.862Z,102787.56
2022-08-09T00:52:18.567Z,102783.69
2022-08-09T00:57:33.603Z,102790.59
2022-08-09T01:02:43.894Z,102789.72
2022-08-09T01:07:59.682Z,102784.09
2022-08-09T01:13:09.158Z,102783.06
2022-08-09T01:18:30.354Z,102779.19
2022-08-09T01:24:02.421Z,102777.28
2022-08-09T01:29:11.679Z,102786.84
2022-08-09T01:34:21.021Z,102786.66
2022-08-09T01:39:27.307Z,102785.47
2022-08-09T01:44:32.903Z,102785.53
2022-08-09T01:49:39.898Z,102778.34
2022-08-09T01:54:47.158Z,102780.78
2022-08-09T02:00:00.267Z,102796.41
2022-08-09T02:05:16.870Z,102787.38
2022-08-09T02:10:29.993Z,102787.28
2022-08-09T02:15:49.413Z,102784.22
2022-08-09T02:21:00.189Z,102800.91
2022-08-09T02:26:04.497Z,102811.22
2022-08-09T02:31:13.852Z,102804.88
2022-08-09T02:36:21.150Z,102801.22
2022-08-09T02:41:29.275Z,102787.63
2022-08-09T02:46:36.036Z,102792.59
2022-08-09T02:51:42.843Z,102786.25
2022-08-09T02:56:51.553Z,102797.47
2022-08-09T03:02:06.370Z,102777.72
2022-08-09T03:07:13.878Z,102786.53
2022-08-09T03:12:18.809Z,102778.34
2022-08-09T03:17:26.932Z,102769.16
2022-08-09T03:22:32.469Z,102775.38
2022-08-09T03:27:44.566Z,102773.56
2022-08-09T03:32:52.503Z,102767.38
2022-08-09T03:37:58.687Z,102768.28
2022-08-09T03:43:01.761Z,102766.16
2022-08-09T03:48:06.889Z,102766.88
2022-08-09T03:53:11.610Z,102776.31
2022-08-09T03:58:16.781Z,102774.59
2022-08-09T04:03:46.443Z,102784.22
2022-08-09T04:08:49.693Z,102775.91
2022-08-09T04:14:53.593Z,102789.97
2022-08-09T04:19:30.333Z,102791.66
2022-08-09T04:24:44.802Z,102804.03
2022-08-09T04:29:49.386Z,102807.44
2022-08-09T04:34:57.500Z,102807.25
2022-08-09T04:40:00.806Z,102823.13
2022-08-09T04:45:06.160Z,102831.88
2022-08-09T04:50:11.547Z,102826.28
2022-08-09T04:55:15.552Z,102824.34
2022-08-09T05:00:22.511Z,102829.50
2022-08-09T05:05:31.390Z,102837.38
2022-08-09T05:10:51.228Z,102840.13
2022-08-09T05:15:56.884Z,102840.38
2022-08-09T05:21:02.307Z,102834.38
2022-08-09T05:26:22.315Z,102840.84
2022-08-09T05:31:44.158Z,102847.25
2022-08-09T05:36:52.281Z,102837.63
2022-08-09T05:41:55.846Z,102838.75
2022-08-09T05:46:58.832Z,102849.72
2022-08-09T05:52:03.610Z,102851.75
2022-08-09T05:57:07.357Z,102864.38
2022-08-09T06:02:17.011Z,102868.34
2022-08-09T06:07:23.322Z,102865.19
2022-08-09T06:12:27.351Z,102863.88
2022-08-09T06:17:40.230Z,102868.84
2022-08-09T06:22:45.715Z,102878.19
2022-08-09T06:27:51.752Z,102876.84
2022-08-09T06:33:00.238Z,102882.72
2022-08-09T06:38:20.692Z,102867.94
2022-08-09T06:43:35.201Z,102869.59
2022-08-09T06:48:43.117Z,102868.41
2022-08-09T06:53:49.944Z,102877.09
2022-08-09T07:00:51.561Z,102887.44
2022-08-09T07:04:20.114Z,102882.63
2022-08-09T07:09:54.141Z,102883.28
2022-08-09T07:14:51.122Z,102896.28
2022-08-09T07:19:56.690Z,102893.34
2022-08-09T07:25:01.236Z,102896.50
2022-08-09T07:30:05.889Z,102894.41
2022-08-09T07:35:12.125Z,102898.75
2022-08-09T07:40:20.653Z,102909.41
2022-08-09T07:45:39.207Z,102903.16
2022-08-09T07:50:52.748Z,102896.31
2022-08-09T07:56:03.347Z,102893.13
2022-08-09T08:01:11.382Z,102885.28
2022-08-09T08:06:14.631Z,102882.47
2022-08-09T08:12:11.533Z,102875.50
2022-08-09T08:16:57.754Z,102882.81
2022-08-09T08:22:05.236Z,102884.53
2022-08-09T08:27:16.300Z,102889.06
2022-08-09T08:32:28.659Z,102895.28
2022-08-09T08:37:41.593Z,102898.44
2022-08-09T08:42:58.867Z,102908.06
2022-08-09T08:48:02.626Z,102903.41
2022-08-09T08:53:15.645Z,102903.00
2022-08-09T08:58:27.093Z,102892.03
2022-08-09T09:03:37.171Z,102895.16
2022-08-09T09:08:42.712Z,102890.06
2022-08-09T09:13:57.587Z,102899.66
2022-08-09T09:24:29.085Z,102893.78
2022-08-09T09:30:08.601Z,102892.03
2022-08-09T09:35:09.260Z,102897.53
2022-08-09T09:40:13.358Z,102903.09
2022-08-09T09:45:26.387Z,102895.16
2022-08-09T09:50:50.535Z,102894.41
2022-08-09T09:56:05.095Z,102893.59
2022-08-09T10:01:30.931Z,102884.63
2022-08-09T10:06:42.413Z,102891.84
2022-08-09T10:11:53.984Z,102890.03
2022-08-09T10:17:39.264Z,102888.22
2022-08-09T10:22:39.143Z,102886.41
2022-08-09T10:27:45.133Z,102875.66
2022-08-09T10:33:03.955Z,102873.81
2022-08-09T10:38:54.800Z,102883.66
2022-08-09T10:43:47.089Z,102867.38
2022-08-09T10:49:04.560Z,102867.25
2022-08-09T10:54:12.295Z,102860.09
2022-08-09T10:59:43.105Z,102858.22
2022-08-09T11:05:25.461Z,102852.00
2022-08-09T11:10:56.566Z,102854.69
2022-08-09T11:16:37.404Z,102853.78
2022-08-09T11:22:16.766Z,102856.91
2022-08-09T11:28:08.002Z,102842.25
2022-08-09T11:33:02.815Z,102835.38
2022-08-09T11:38:18.183Z,102827.91
2022-08-09T11:43:40.141Z,102837.50
2022-08-09T11:48:52.305Z,102832.34
2022-08-09T11:54:27.500Z,102827.16
2022-08-09T11:59:33.641Z,102821.25
2022-08-09T12:04:38.312Z,102817.22
2022-08-09T12:09:50.664Z,102817.50
2022-08-09T12:15:07.950Z,102808.69
2022-08-09T12:20:16.370Z,102802.13
2022-08-09T12:25:31.801Z,102802.28
2022-08-09T12:30:42.106Z,102796.91
2022-08-09T12:35:47.810Z,102797.50
2022-08-09T12:40:54.903Z,102781.66
2022-08-09T12:46:00.648Z,102779.00
2022-08-09T12:51:04.494Z,102784.34
2022-08-09T12:56:43.815Z,102775.41
2022-08-09T13:01:47.037Z,102774.13
2022-08-09T13:06:54.068Z,102762.56
2022-08-09T13:12:04.446Z,102761.25
2022-08-09T13:17:15.889Z,102757.47
2022-08-09T13:22:38.457Z,102754.94
2022-08-09T13:27:55.228Z,102739.63
2022-08-09T13:32:59.151Z,102738.66
2022-08-09T13:38:03.404Z,102737.19
2022-08-09T13:43:09.469Z,102734.41
2022-08-09T13:48:14.690Z,102722.06
2022-08-09T13:53:18.583Z,102725.38
2022-08-09T13:58:22.863Z,102716.03
2022-08-09T14:04:01.292Z,102720.03
2022-08-09T14:08:51.501Z,102720.56
2022-08-09T14:14:22.320Z,102715.84
2022-08-09T14:19:20.469Z,102708.09
2022-08-09T14:24:32.414Z,102717.22
2022-08-09T14:30:34.828Z,102711.16
2022-08-09T14:35:00.805Z,102698.03
2022-08-09T14:40:04.188Z,102696.19
2022-08-09T14:46:39.512Z,102702.00
2022-08-09T14:50:36.968Z,102694.00
2022-08-09T14:55:42.434Z,102690.56
2022-08-09T15:00:57.789Z,102693.81
2022-08-09T15:06:01.715Z,102689.88
2022-08-09T15:11:07.559Z,102674.84
2022-08-09T15:16:12.339Z,102691.88
2022-08-09T15:22:00.743Z,102692.25
2022-08-09T15:26:45.307Z,102683.47
2022-08-09T15:31:51.076Z,102681.66
2022-08-09T15:36:58.233Z,102677.72
2022-08-09T15:42:01.416Z,102686.31
2022-08-09T15:47:05.934Z,102684.38
2022-08-09T15:52:17.027Z,102680.88
2022-08-09T15:57:35.982Z,102667.00
2022-08-09T16:02:53.993Z,102663.06
2022-08-09T16:07:58.105Z,102663.84
2022-08-09T16:13:04.464Z,102655.69
2022-08-09T16:18:23.201Z,102667.59
2022-08-09T16:23:26.384Z,102664.41
2022-08-09T16:28:31.267Z,102660.13
2022-08-09T16:33:38.928Z,102657.13
2022-08-09T16:38:42.335Z,102654.69
2022-08-09T16:43:45.284Z,102661.38
2022-08-09T16:48:54.052Z,102654.13
2022-08-09T16:54:26.095Z,102650.38
2022-08-09T16:59:25.735Z,102653.59
2022-08-09T17:04:39.016Z,102651.44
2022-08-09T17:09:45.901Z,102662.72
2022-08-09T17:14:54.880Z,102659.81
2022-08-09T17:20:32.452Z,102656.78
2022-08-09T17:25:25.282Z,102662.50
2022-08-09T17:30:34.984Z,102662.16
2022-08-09T17:35:41.061Z,102663.59
2022-08-09T17:40:47.185Z,102670.25
2022-08-09T17:46:04.284Z,102677.72
2022-08-09T17:51:19.474Z,102680.63
2022-08-09T17:56:27.469Z,102676.22
2022-08-09T18:02:03.865Z,102676.38
2022-08-09T18:06:56.995Z,102669.28
2022-08-09T18:12:10.125Z,102675.69
2022-08-09T18:17:27.480Z,102671.34
2022-08-09T18:22:44.165Z,102686.69
2022-08-09T18:28:04.468Z,102685.00
2022-08-09T18:33:13.504Z,102688.72
2022-08-09T18:38:20.219Z,102689.69
2022-08-09T18:43:23.905Z,102692.44
2022-08-09T18:48:30.432Z,102682.59
2022-08-09T18:53:56.564Z,102701.41
2022-08-09T18:59:01.042Z,102699.59
2022-08-09T19:04:08.365Z,102695.03
2022-08-09T19:09:20.579Z,102705.75
2022-08-09T19:14:36.949Z,102705.63
2022-08-09T19:19:41.967Z,102704.66
2022-08-09T19:25:09.979Z,102707.22
2022-08-09T19:30:22.891Z,102712.44
2022-08-09T19:35:57.138Z,102706.88
2022-08-09T19:41:00.393Z,102711.19
2022-08-09T19:46:04.125Z,102712.81
2022-08-09T19:51:07.630Z,102711.69
2022-08-09T19:56:15.496Z,102716.00
2022-08-09T20:01:18.793Z,102724.81
2022-08-09T20:06:29.867Z,102722.84
2022-08-09T20:11:45.271Z,102727.03
2022-08-09T20:16:55.049Z,102733.09
2022-08-09T20:22:00.633Z,102729.22
2022-08-09T20:27:08.307Z,102734.38
2022-08-09T20:32:30.773Z,102739.56
2022-08-09T20:38:22.201Z,102736.63
2022-08-09T20:43:19.236Z,102743.47
2022-08-09T20:48:24.954Z,102742.41
2022-08-09T20:53:36.461Z,102743.16
2022-08-09T20:58:43.561Z,102751.06
2022-08-09T21:05:49.755Z,102744.66
2022-08-09T21:09:13.583Z,102744.53
2022-08-09T21:14:19.022Z,102752.31
2022-08-09T21:20:17.890Z,102754.75
2022-08-09T21:25:00.423Z,102764.34
2022-08-09T21:30:05.235Z,102751.75
2022-08-09T21:35:08.822Z,102744.50
2022-08-09T21:40:15.438Z,102758.53
2022-08-09T21:45:26.633Z,102751.25
2022-08-09T21:50:36.191Z,102749.28
2022-08-09T21:55:46.576Z,102739.34
2022-08-09T22:00:52.362Z,102739.28
2022-08-09T22:05:58.025Z,102742.84
2022-08-09T22:12:06.746Z,102739.28
2022-08-09T22:16:25.565Z,102741.88
2022-08-09T22:21:50.209Z,102746.91
2022-08-09T22:26:52.957Z,102749.47
2022-08-09T22:31:58.054Z,102752.91
2022-08-09T22:37:01.583Z,102746.47
2022-08-09T22:42:20.849Z,102752.56
2022-08-09T22:48:10.694Z,102753.25
2022-08-09T22:52:54.832Z,102744.16
2022-08-09T22:58:01.653Z,102743.97
2022-08-09T23:03:12.784Z,102745.53
2022-08-09T23:08:33.581Z,102744.34
2022-08-09T23:13:37.316Z,102752.91
2022-08-09T23:18:42.709Z,102757.06
2022-08-09T23:24:05.457Z,102762.38
2022-08-09T23:29:11.633Z,102752.34
2022-08-09T23:34:15.914Z,102754.66
2022-08-09T23:39:19.143Z,102754.31
2022-08-09T23:44:22.057Z,102754.84
2022-08-09T23:49:26.526Z,102755.34
2022-08-09T23:54:29.520Z,102756.03
2022-08-09T23:59:46.415Z,102756.66
